Drummondville, Canada
Current Conditions -  °F | °C
As of 2:00 PM on Thursday 18 Dec 2014 (Local Time) from CYRQ Reporting Station
Overcast Overcast  
Wind Chill: 22°   Ceiling: 4800
Heat Index: 30°   Visibility: 9mi
Dew Point: 27°   Wind: 9mph
Humidity: 86%   Direction: 340°NNW
Pressure: 29.81"   Gusts: 17mph
Location:  45.88°N, 72.48°W
Report Text: CYRQ 181900Z AUTO 34008G15KT 9SM FEW020 OVC048 M01/M03 A2981 RMK SLP098
Loading
Personal Weather Stations






























Interactive Weather Map New forecast layout! Learn more

10-Day Weather Forecast

Advertisements
Track Severe Weather on mobile